sensor_id;sensor_type;location;lat;lon;timestamp;P1;durP1;ratioP1;P2;durP2;ratioP2
62848;SDS011;48941;49.516;8.286;2022-08-03T00:13:38;8.10;;;3.30;;
62848;SDS011;48941;49.516;8.286;2022-08-03T00:16:06;5.35;;;3.20;;
62848;SDS011;48941;49.516;8.286;2022-08-03T00:18:34;3.60;;;2.70;;
62848;SDS011;48941;49.516;8.286;2022-08-03T00:21:01;4.60;;;2.90;;
62848;SDS011;48941;49.516;8.286;2022-08-03T00:23:29;5.68;;;3.00;;
62848;SDS011;48941;49.516;8.286;2022-08-03T00:26:17;5.65;;;2.95;;
62848;SDS011;48941;49.516;8.286;2022-08-03T00:28:46;5.88;;;2.97;;
62848;SDS011;48941;49.516;8.286;2022-08-03T00:31:14;5.47;;;3.08;;
62848;SDS011;48941;49.516;8.286;2022-08-03T00:34:02;5.88;;;3.10;;
62848;SDS011;48941;49.516;8.286;2022-08-03T00:36:32;5.70;;;2.90;;
62848;SDS011;48941;49.516;8.286;2022-08-03T00:38:59;9.18;;;3.20;;
62848;SDS011;48941;49.516;8.286;2022-08-03T00:41:27;6.40;;;3.50;;
62848;SDS011;48941;49.516;8.286;2022-08-03T00:43:56;5.55;;;3.10;;
62848;SDS011;48941;49.516;8.286;2022-08-03T00:46:24;8.20;;;3.60;;
62848;SDS011;48941;49.516;8.286;2022-08-03T00:48:52;7.25;;;3.10;;
62848;SDS011;48941;49.516;8.286;2022-08-03T00:51:20;8.38;;;2.97;;
62848;SDS011;48941;49.516;8.286;2022-08-03T00:53:49;6.18;;;3.30;;
62848;SDS011;48941;49.516;8.286;2022-08-03T00:56:17;9.30;;;3.35;;
62848;SDS011;48941;49.516;8.286;2022-08-03T00:58:45;4.45;;;2.83;;
62848;SDS011;48941;49.516;8.286;2022-08-03T01:01:15;8.60;;;3.13;;
62848;SDS011;48941;49.516;8.286;2022-08-03T01:03:43;5.15;;;3.38;;
62848;SDS011;48941;49.516;8.286;2022-08-03T01:06:11;8.05;;;2.97;;
62848;SDS011;48941;49.516;8.286;2022-08-03T01:08:45;6.32;;;2.83;;
62848;SDS011;48941;49.516;8.286;2022-08-03T01:11:21;6.22;;;2.97;;
62848;SDS011;48941;49.516;8.286;2022-08-03T01:13:56;4.00;;;3.25;;
62848;SDS011;48941;49.516;8.286;2022-08-03T01:16:49;6.72;;;2.92;;
62848;SDS011;48941;49.516;8.286;2022-08-03T01:19:30;7.05;;;3.40;;
62848;SDS011;48941;49.516;8.286;2022-08-03T01:22:10;6.55;;;3.13;;
62848;SDS011;48941;49.516;8.286;2022-08-03T01:24:49;9.25;;;3.85;;
62848;SDS011;48941;49.516;8.286;2022-08-03T01:27:28;18.92;;;4.57;;
62848;SDS011;48941;49.516;8.286;2022-08-03T01:30:03;6.35;;;3.40;;
62848;SDS011;48941;49.516;8.286;2022-08-03T01:32:40;12.27;;;3.28;;
62848;SDS011;48941;49.516;8.286;2022-08-03T01:35:27;6.65;;;2.80;;
62848;SDS011;48941;49.516;8.286;2022-08-03T01:38:04;5.50;;;3.40;;
62848;SDS011;48941;49.516;8.286;2022-08-03T01:40:36;7.40;;;2.88;;
62848;SDS011;48941;49.516;8.286;2022-08-03T01:43:06;11.50;;;2.80;;
62848;SDS011;48941;49.516;8.286;2022-08-03T01:45:38;5.82;;;3.00;;
62848;SDS011;48941;49.516;8.286;2022-08-03T01:48:06;9.25;;;3.10;;
62848;SDS011;48941;49.516;8.286;2022-08-03T01:50:36;6.97;;;3.20;;
62848;SDS011;48941;49.516;8.286;2022-08-03T01:53:04;4.93;;;2.85;;
62848;SDS011;48941;49.516;8.286;2022-08-03T01:55:35;14.77;;;3.60;;
62848;SDS011;48941;49.516;8.286;2022-08-03T01:58:04;11.60;;;3.30;;
62848;SDS011;48941;49.516;8.286;2022-08-03T02:00:34;8.43;;;3.25;;
62848;SDS011;48941;49.516;8.286;2022-08-03T02:03:05;10.50;;;2.83;;
62848;SDS011;48941;49.516;8.286;2022-08-03T02:05:34;8.48;;;3.40;;
62848;SDS011;48941;49.516;8.286;2022-08-03T02:08:04;25.30;;;4.60;;
62848;SDS011;48941;49.516;8.286;2022-08-03T02:10:36;7.20;;;2.97;;
62848;SDS011;48941;49.516;8.286;2022-08-03T02:13:08;7.93;;;3.40;;
62848;SDS011;48941;49.516;8.286;2022-08-03T02:15:37;5.80;;;3.10;;
62848;SDS011;48941;49.516;8.286;2022-08-03T02:18:07;5.65;;;3.20;;
62848;SDS011;48941;49.516;8.286;2022-08-03T02:20:36;5.80;;;2.92;;
62848;SDS011;48941;49.516;8.286;2022-08-03T02:23:05;6.53;;;2.97;;
62848;SDS011;48941;49.516;8.286;2022-08-03T02:25:34;9.07;;;2.88;;
62848;SDS011;48941;49.516;8.286;2022-08-03T02:28:09;7.68;;;3.67;;
62848;SDS011;48941;49.516;8.286;2022-08-03T02:30:39;10.60;;;4.38;;
62848;SDS011;48941;49.516;8.286;2022-08-03T02:33:18;9.77;;;3.25;;
62848;SDS011;48941;49.516;8.286;2022-08-03T02:35:51;7.93;;;3.15;;
62848;SDS011;48941;49.516;8.286;2022-08-03T02:38:20;9.32;;;3.63;;
62848;SDS011;48941;49.516;8.286;2022-08-03T02:40:52;5.90;;;3.20;;
62848;SDS011;48941;49.516;8.286;2022-08-03T02:43:22;3.75;;;2.92;;
62848;SDS011;48941;49.516;8.286;2022-08-03T02:45:51;11.32;;;3.42;;
62848;SDS011;48941;49.516;8.286;2022-08-03T02:48:22;6.82;;;3.35;;
62848;SDS011;48941;49.516;8.286;2022-08-03T02:50:56;3.55;;;3.22;;
62848;SDS011;48941;49.516;8.286;2022-08-03T02:53:25;6.70;;;3.10;;
62848;SDS011;48941;49.516;8.286;2022-08-03T02:55:55;6.88;;;3.40;;
62848;SDS011;48941;49.516;8.286;2022-08-03T02:58:24;5.00;;;3.50;;
62848;SDS011;48941;49.516;8.286;2022-08-03T03:00:52;5.18;;;3.22;;
62848;SDS011;48941;49.516;8.286;2022-08-03T03:03:22;6.13;;;3.20;;
62848;SDS011;48941;49.516;8.286;2022-08-03T03:05:55;8.85;;;3.60;;
62848;SDS011;48941;49.516;8.286;2022-08-03T03:08:25;5.65;;;3.10;;
62848;SDS011;48941;49.516;8.286;2022-08-03T03:10:54;8.70;;;3.10;;
62848;SDS011;48941;49.516;8.286;2022-08-03T03:13:24;9.75;;;4.63;;
62848;SDS011;48941;49.516;8.286;2022-08-03T03:15:55;6.80;;;3.97;;
62848;SDS011;48941;49.516;8.286;2022-08-03T03:18:28;10.40;;;4.60;;
62848;SDS011;48941;49.516;8.286;2022-08-03T03:20:57;6.22;;;3.55;;
62848;SDS011;48941;49.516;8.286;2022-08-03T03:23:26;5.88;;;3.55;;
62848;SDS011;48941;49.516;8.286;2022-08-03T03:25:59;5.93;;;3.47;;
62848;SDS011;48941;49.516;8.286;2022-08-03T03:28:27;9.60;;;3.20;;
62848;SDS011;48941;49.516;8.286;2022-08-03T03:30:56;6.72;;;3.60;;
62848;SDS011;48941;49.516;8.286;2022-08-03T03:33:24;5.18;;;3.50;;
62848;SDS011;48941;49.516;8.286;2022-08-03T03:35:55;4.95;;;3.17;;
62848;SDS011;48941;49.516;8.286;2022-08-03T03:38:24;7.53;;;3.22;;
62848;SDS011;48941;49.516;8.286;2022-08-03T03:40:52;5.25;;;3.90;;
62848;SDS011;48941;49.516;8.286;2022-08-03T03:43:22;6.72;;;3.70;;
62848;SDS011;48941;49.516;8.286;2022-08-03T03:45:50;7.93;;;3.38;;
62848;SDS011;48941;49.516;8.286;2022-08-03T03:48:19;6.53;;;3.67;;
62848;SDS011;48941;49.516;8.286;2022-08-03T03:50:47;11.23;;;3.53;;
62848;SDS011;48941;49.516;8.286;2022-08-03T03:53:17;4.88;;;3.50;;
62848;SDS011;48941;49.516;8.286;2022-08-03T03:55:45;10.18;;;3.95;;
62848;SDS011;48941;49.516;8.286;2022-08-03T03:58:28;6.32;;;3.40;;
62848;SDS011;48941;49.516;8.286;2022-08-03T04:00:57;15.98;;;8.00;;
62848;SDS011;48941;49.516;8.286;2022-08-03T04:03:25;14.70;;;3.92;;
62848;SDS011;48941;49.516;8.286;2022-08-03T04:05:52;7.25;;;3.60;;
62848;SDS011;48941;49.516;8.286;2022-08-03T04:08:39;11.73;;;3.65;;
62848;SDS011;48941;49.516;8.286;2022-08-03T04:11:25;8.32;;;3.45;;
62848;SDS011;48941;49.516;8.286;2022-08-03T04:13:58;5.95;;;3.25;;
62848;SDS011;48941;49.516;8.286;2022-08-03T04:16:31;4.80;;;3.47;;
62848;SDS011;48941;49.516;8.286;2022-08-03T04:19:07;4.88;;;3.20;;
62848;SDS011;48941;49.516;8.286;2022-08-03T04:21:37;5.70;;;3.30;;
62848;SDS011;48941;49.516;8.286;2022-08-03T04:24:09;10.30;;;3.83;;
62848;SDS011;48941;49.516;8.286;2022-08-03T04:26:40;9.25;;;3.45;;
62848;SDS011;48941;49.516;8.286;2022-08-03T04:29:17;13.20;;;4.00;;
62848;SDS011;48941;49.516;8.286;2022-08-03T04:31:47;12.88;;;3.70;;
62848;SDS011;48941;49.516;8.286;2022-08-03T04:34:16;12.85;;;3.83;;
62848;SDS011;48941;49.516;8.286;2022-08-03T04:36:46;18.25;;;3.83;;
62848;SDS011;48941;49.516;8.286;2022-08-03T04:39:19;9.32;;;3.65;;
62848;SDS011;48941;49.516;8.286;2022-08-03T04:41:52;9.60;;;3.67;;
62848;SDS011;48941;49.516;8.286;2022-08-03T04:44:42;12.23;;;3.90;;
62848;SDS011;48941;49.516;8.286;2022-08-03T04:47:10;13.98;;;3.72;;
62848;SDS011;48941;49.516;8.286;2022-08-03T04:49:38;12.15;;;3.60;;
62848;SDS011;48941;49.516;8.286;2022-08-03T04:52:07;9.57;;;3.78;;
62848;SDS011;48941;49.516;8.286;2022-08-03T04:54:40;14.82;;;3.70;;
62848;SDS011;48941;49.516;8.286;2022-08-03T04:57:16;12.88;;;3.65;;
62848;SDS011;48941;49.516;8.286;2022-08-03T04:59:49;6.30;;;3.50;;
62848;SDS011;48941;49.516;8.286;2022-08-03T05:02:28;8.23;;;4.07;;
62848;SDS011;48941;49.516;8.286;2022-08-03T05:04:57;11.38;;;3.80;;
62848;SDS011;48941;49.516;8.286;2022-08-03T05:07:25;9.27;;;4.00;;
62848;SDS011;48941;49.516;8.286;2022-08-03T05:10:02;9.18;;;4.32;;
62848;SDS011;48941;49.516;8.286;2022-08-03T05:12:41;8.52;;;4.03;;
62848;SDS011;48941;49.516;8.286;2022-08-03T05:15:10;16.27;;;4.00;;
62848;SDS011;48941;49.516;8.286;2022-08-03T05:17:38;15.25;;;3.95;;
62848;SDS011;48941;49.516;8.286;2022-08-03T05:20:06;13.10;;;4.10;;
62848;SDS011;48941;49.516;8.286;2022-08-03T05:22:35;17.75;;;4.30;;
62848;SDS011;48941;49.516;8.286;2022-08-03T05:25:05;20.58;;;5.43;;
62848;SDS011;48941;49.516;8.286;2022-08-03T05:27:33;19.05;;;4.78;;
62848;SDS011;48941;49.516;8.286;2022-08-03T05:30:02;17.38;;;4.47;;
62848;SDS011;48941;49.516;8.286;2022-08-03T05:32:50;15.18;;;4.32;;
62848;SDS011;48941;49.516;8.286;2022-08-03T05:35:18;14.93;;;4.53;;
62848;SDS011;48941;49.516;8.286;2022-08-03T05:38:06;13.93;;;4.55;;
62848;SDS011;48941;49.516;8.286;2022-08-03T05:40:37;10.15;;;4.78;;
62848;SDS011;48941;49.516;8.286;2022-08-03T05:43:21;8.45;;;4.22;;
62848;SDS011;48941;49.516;8.286;2022-08-03T05:45:49;13.27;;;4.47;;
62848;SDS011;48941;49.516;8.286;2022-08-03T05:48:37;14.65;;;5.05;;
62848;SDS011;48941;49.516;8.286;2022-08-03T05:51:05;7.85;;;4.07;;
62848;SDS011;48941;49.516;8.286;2022-08-03T05:53:37;9.05;;;4.40;;
62848;SDS011;48941;49.516;8.286;2022-08-03T05:56:07;11.30;;;4.15;;
62848;SDS011;48941;49.516;8.286;2022-08-03T05:58:40;9.52;;;4.10;;
62848;SDS011;48941;49.516;8.286;2022-08-03T06:01:08;15.85;;;4.60;;
62848;SDS011;48941;49.516;8.286;2022-08-03T06:03:35;14.25;;;4.00;;
62848;SDS011;48941;49.516;8.286;2022-08-03T06:06:03;12.10;;;3.65;;
62848;SDS011;48941;49.516;8.286;2022-08-03T06:08:31;18.05;;;4.07;;
62848;SDS011;48941;49.516;8.286;2022-08-03T06:10:59;15.85;;;3.90;;
62848;SDS011;48941;49.516;8.286;2022-08-03T06:13:28;13.15;;;3.75;;
62848;SDS011;48941;49.516;8.286;2022-08-03T06:15:56;9.80;;;3.95;;
62848;SDS011;48941;49.516;8.286;2022-08-03T06:18:24;12.00;;;3.78;;
62848;SDS011;48941;49.516;8.286;2022-08-03T06:20:52;8.32;;;4.00;;
62848;SDS011;48941;49.516;8.286;2022-08-03T06:23:20;10.10;;;3.70;;
62848;SDS011;48941;49.516;8.286;2022-08-03T06:26:08;9.95;;;3.67;;
62848;SDS011;48941;49.516;8.286;2022-08-03T06:28:40;9.80;;;3.45;;
62848;SDS011;48941;49.516;8.286;2022-08-03T06:31:18;17.73;;;4.00;;
62848;SDS011;48941;49.516;8.286;2022-08-03T06:33:47;10.90;;;3.45;;
62848;SDS011;48941;49.516;8.286;2022-08-03T06:36:34;6.60;;;3.28;;
62848;SDS011;48941;49.516;8.286;2022-08-03T06:39:02;9.50;;;3.60;;
62848;SDS011;48941;49.516;8.286;2022-08-03T06:41:33;10.95;;;3.20;;
62848;SDS011;48941;49.516;8.286;2022-08-03T06:44:04;12.00;;;3.40;;
62848;SDS011;48941;49.516;8.286;2022-08-03T06:46:32;10.68;;;3.58;;
62848;SDS011;48941;49.516;8.286;2022-08-03T06:49:00;7.55;;;3.67;;
62848;SDS011;48941;49.516;8.286;2022-08-03T06:51:28;10.82;;;3.50;;
62848;SDS011;48941;49.516;8.286;2022-08-03T06:54:16;18.55;;;4.80;;
62848;SDS011;48941;49.516;8.286;2022-08-03T06:56:44;8.98;;;3.75;;
62848;SDS011;48941;49.516;8.286;2022-08-03T06:59:13;10.68;;;3.25;;
62848;SDS011;48941;49.516;8.286;2022-08-03T07:02:00;6.20;;;2.97;;
62848;SDS011;48941;49.516;8.286;2022-08-03T07:04:29;5.93;;;3.15;;
62848;SDS011;48941;49.516;8.286;2022-08-03T07:06:56;7.97;;;3.08;;
62848;SDS011;48941;49.516;8.286;2022-08-03T07:09:24;7.30;;;3.40;;
62848;SDS011;48941;49.516;8.286;2022-08-03T07:11:52;6.07;;;2.90;;
62848;SDS011;48941;49.516;8.286;2022-08-03T07:14:21;6.97;;;3.30;;
62848;SDS011;48941;49.516;8.286;2022-08-03T07:16:49;9.52;;;3.00;;
62848;SDS011;48941;49.516;8.286;2022-08-03T07:19:17;10.35;;;3.05;;
62848;SDS011;48941;49.516;8.286;2022-08-03T07:21:45;10.70;;;3.53;;
62848;SDS011;48941;49.516;8.286;2022-08-03T07:24:12;6.68;;;3.45;;
62848;SDS011;48941;49.516;8.286;2022-08-03T07:26:40;5.88;;;3.10;;
62848;SDS011;48941;49.516;8.286;2022-08-03T07:29:10;12.93;;;3.30;;
62848;SDS011;48941;49.516;8.286;2022-08-03T07:31:42;7.70;;;2.80;;
62848;SDS011;48941;49.516;8.286;2022-08-03T07:34:10;10.85;;;3.15;;
62848;SDS011;48941;49.516;8.286;2022-08-03T07:36:37;9.90;;;3.10;;
62848;SDS011;48941;49.516;8.286;2022-08-03T07:39:05;6.18;;;2.72;;
62848;SDS011;48941;49.516;8.286;2022-08-03T07:41:43;6.22;;;2.97;;
62848;SDS011;48941;49.516;8.286;2022-08-03T07:44:11;6.03;;;2.80;;
62848;SDS011;48941;49.516;8.286;2022-08-03T07:46:39;3.97;;;2.78;;
62848;SDS011;48941;49.516;8.286;2022-08-03T07:49:09;5.65;;;2.75;;
62848;SDS011;48941;49.516;8.286;2022-08-03T07:51:37;9.60;;;3.20;;
62848;SDS011;48941;49.516;8.286;2022-08-03T07:54:05;5.72;;;3.30;;
62848;SDS011;48941;49.516;8.286;2022-08-03T07:56:35;7.45;;;3.00;;
62848;SDS011;48941;49.516;8.286;2022-08-03T07:59:03;9.25;;;2.65;;
62848;SDS011;48941;49.516;8.286;2022-08-03T08:01:31;7.50;;;3.10;;
62848;SDS011;48941;49.516;8.286;2022-08-03T08:04:01;4.07;;;2.65;;
62848;SDS011;48941;49.516;8.286;2022-08-03T08:06:31;6.90;;;3.08;;
62848;SDS011;48941;49.516;8.286;2022-08-03T08:08:59;16.30;;;4.50;;
62848;SDS011;48941;49.516;8.286;2022-08-03T08:11:27;6.38;;;2.92;;
62848;SDS011;48941;49.516;8.286;2022-08-03T08:14:02;6.30;;;2.95;;
62848;SDS011;48941;49.516;8.286;2022-08-03T08:16:30;6.18;;;2.60;;
62848;SDS011;48941;49.516;8.286;2022-08-03T08:18:58;5.88;;;2.63;;
62848;SDS011;48941;49.516;8.286;2022-08-03T08:21:27;7.60;;;3.03;;
62848;SDS011;48941;49.516;8.286;2022-08-03T08:24:16;5.82;;;2.80;;
62848;SDS011;48941;49.516;8.286;2022-08-03T08:26:45;7.13;;;2.75;;
62848;SDS011;48941;49.516;8.286;2022-08-03T08:29:13;5.25;;;2.83;;
62848;SDS011;48941;49.516;8.286;2022-08-03T08:31:41;4.28;;;2.70;;
62848;SDS011;48941;49.516;8.286;2022-08-03T08:34:09;6.50;;;2.60;;
62848;SDS011;48941;49.516;8.286;2022-08-03T08:36:36;4.25;;;2.55;;
62848;SDS011;48941;49.516;8.286;2022-08-03T08:39:04;6.47;;;2.75;;
62848;SDS011;48941;49.516;8.286;2022-08-03T08:41:33;4.55;;;2.90;;
62848;SDS011;48941;49.516;8.286;2022-08-03T08:44:01;4.95;;;2.75;;
62848;SDS011;48941;49.516;8.286;2022-08-03T08:46:29;5.55;;;2.60;;
62848;SDS011;48941;49.516;8.286;2022-08-03T08:48:59;12.98;;;3.20;;
62848;SDS011;48941;49.516;8.286;2022-08-03T08:51:30;3.85;;;2.70;;
62848;SDS011;48941;49.516;8.286;2022-08-03T08:54:22;4.05;;;2.50;;
62848;SDS011;48941;49.516;8.286;2022-08-03T08:56:53;12.35;;;3.40;;
62848;SDS011;48941;49.516;8.286;2022-08-03T08:59:25;6.85;;;2.60;;
62848;SDS011;48941;49.516;8.286;2022-08-03T09:02:13;4.80;;;2.80;;
62848;SDS011;48941;49.516;8.286;2022-08-03T09:04:41;5.80;;;2.92;;
62848;SDS011;48941;49.516;8.286;2022-08-03T09:07:10;5.53;;;2.80;;
62848;SDS011;48941;49.516;8.286;2022-08-03T09:09:54;4.82;;;2.90;;
62848;SDS011;48941;49.516;8.286;2022-08-03T09:12:40;5.60;;;2.72;;
62848;SDS011;48941;49.516;8.286;2022-08-03T09:15:16;9.18;;;2.85;;
62848;SDS011;48941;49.516;8.286;2022-08-03T09:17:48;7.90;;;3.20;;
62848;SDS011;48941;49.516;8.286;2022-08-03T09:20:18;7.85;;;3.10;;
62848;SDS011;48941;49.516;8.286;2022-08-03T09:22:54;5.70;;;3.10;;
62848;SDS011;48941;49.516;8.286;2022-08-03T09:25:31;10.68;;;3.00;;
62848;SDS011;48941;49.516;8.286;2022-08-03T09:28:04;8.43;;;3.05;;
62848;SDS011;48941;49.516;8.286;2022-08-03T09:30:35;6.90;;;3.10;;
62848;SDS011;48941;49.516;8.286;2022-08-03T09:33:04;8.18;;;2.70;;
62848;SDS011;48941;49.516;8.286;2022-08-03T09:35:39;17.75;;;3.30;;
62848;SDS011;48941;49.516;8.286;2022-08-03T09:38:23;6.43;;;2.97;;
62848;SDS011;48941;49.516;8.286;2022-08-03T09:40:52;11.52;;;3.28;;
62848;SDS011;48941;49.516;8.286;2022-08-03T09:43:27;4.63;;;3.10;;
62848;SDS011;48941;49.516;8.286;2022-08-03T09:46:01;7.28;;;3.00;;
62848;SDS011;48941;49.516;8.286;2022-08-03T09:48:30;8.55;;;2.85;;
62848;SDS011;48941;49.516;8.286;2022-08-03T09:51:01;9.93;;;3.10;;
62848;SDS011;48941;49.516;8.286;2022-08-03T09:53:50;9.80;;;3.13;;
62848;SDS011;48941;49.516;8.286;2022-08-03T09:56:25;4.75;;;3.17;;
62848;SDS011;48941;49.516;8.286;2022-08-03T09:59:06;6.35;;;3.00;;
62848;SDS011;48941;49.516;8.286;2022-08-03T10:01:34;8.15;;;3.10;;
62848;SDS011;48941;49.516;8.286;2022-08-03T10:04:04;3.30;;;2.70;;
62848;SDS011;48941;49.516;8.286;2022-08-03T10:06:31;7.20;;;3.40;;
62848;SDS011;48941;49.516;8.286;2022-08-03T10:09:04;5.00;;;2.90;;
62848;SDS011;48941;49.516;8.286;2022-08-03T10:11:33;5.55;;;3.13;;
62848;SDS011;48941;49.516;8.286;2022-08-03T10:14:08;9.40;;;3.38;;
62848;SDS011;48941;49.516;8.286;2022-08-03T10:16:44;7.25;;;2.80;;
62848;SDS011;48941;49.516;8.286;2022-08-03T10:19:13;7.68;;;3.22;;
62848;SDS011;48941;49.516;8.286;2022-08-03T10:21:41;5.95;;;3.05;;
62848;SDS011;48941;49.516;8.286;2022-08-03T10:24:14;5.53;;;2.63;;
62848;SDS011;48941;49.516;8.286;2022-08-03T10:26:46;3.60;;;2.58;;
62848;SDS011;48941;49.516;8.286;2022-08-03T10:29:19;4.78;;;2.60;;
62848;SDS011;48941;49.516;8.286;2022-08-03T10:31:49;10.43;;;2.88;;
62848;SDS011;48941;49.516;8.286;2022-08-03T10:34:24;4.35;;;2.60;;
62848;SDS011;48941;49.516;8.286;2022-08-03T10:36:55;4.63;;;2.70;;
62848;SDS011;48941;49.516;8.286;2022-08-03T10:39:26;2.78;;;2.58;;
62848;SDS011;48941;49.516;8.286;2022-08-03T10:41:56;7.97;;;2.70;;
62848;SDS011;48941;49.516;8.286;2022-08-03T10:44:30;3.70;;;2.50;;
62848;SDS011;48941;49.516;8.286;2022-08-03T10:47:03;7.63;;;2.88;;
62848;SDS011;48941;49.516;8.286;2022-08-03T10:49:31;4.90;;;2.60;;
62848;SDS011;48941;49.516;8.286;2022-08-03T10:52:01;6.72;;;2.70;;
62848;SDS011;48941;49.516;8.286;2022-08-03T10:54:39;5.70;;;2.60;;
62848;SDS011;48941;49.516;8.286;2022-08-03T10:57:42;8.65;;;3.00;;
62848;SDS011;48941;49.516;8.286;2022-08-03T11:00:17;3.72;;;2.70;;
62848;SDS011;48941;49.516;8.286;2022-08-03T11:03:02;8.80;;;2.63;;
62848;SDS011;48941;49.516;8.286;2022-08-03T11:05:32;8.60;;;2.67;;
62848;SDS011;48941;49.516;8.286;2022-08-03T11:08:22;4.53;;;2.50;;
62848;SDS011;48941;49.516;8.286;2022-08-03T11:10:55;5.05;;;2.60;;
62848;SDS011;48941;49.516;8.286;2022-08-03T11:13:28;4.50;;;2.42;;
62848;SDS011;48941;49.516;8.286;2022-08-03T11:16:02;12.63;;;3.15;;
62848;SDS011;48941;49.516;8.286;2022-08-03T11:18:54;5.88;;;2.70;;
62848;SDS011;48941;49.516;8.286;2022-08-03T11:27:27;4.15;;;2.70;;
62848;SDS011;48941;49.516;8.286;2022-08-03T11:29:59;5.45;;;2.80;;
62848;SDS011;48941;49.516;8.286;2022-08-03T11:35:24;3.25;;;2.70;;
62848;SDS011;48941;49.516;8.286;2022-08-03T11:38:01;7.03;;;2.80;;
62848;SDS011;48941;49.516;8.286;2022-08-03T11:40:38;3.75;;;2.60;;
62848;SDS011;48941;49.516;8.286;2022-08-03T11:43:09;7.80;;;2.60;;
62848;SDS011;48941;49.516;8.286;2022-08-03T11:46:00;7.78;;;2.85;;
62848;SDS011;48941;49.516;8.286;2022-08-03T11:48:34;3.25;;;2.53;;
62848;SDS011;48941;49.516;8.286;2022-08-03T11:51:05;2.63;;;2.42;;
62848;SDS011;48941;49.516;8.286;2022-08-03T11:53:34;5.43;;;2.80;;
62848;SDS011;48941;49.516;8.286;2022-08-03T11:56:07;3.85;;;2.30;;
62848;SDS011;48941;49.516;8.286;2022-08-03T11:58:44;4.47;;;2.40;;
62848;SDS011;48941;49.516;8.286;2022-08-03T12:01:33;4.32;;;2.60;;
62848;SDS011;48941;49.516;8.286;2022-08-03T12:04:03;4.63;;;2.47;;
62848;SDS011;48941;49.516;8.286;2022-08-03T12:06:31;4.55;;;2.60;;
62848;SDS011;48941;49.516;8.286;2022-08-03T12:09:19;2.55;;;2.35;;
62848;SDS011;48941;49.516;8.286;2022-08-03T12:11:47;2.60;;;2.40;;
62848;SDS011;48941;49.516;8.286;2022-08-03T12:14:26;3.42;;;2.45;;
62848;SDS011;48941;49.516;8.286;2022-08-03T12:17:14;2.88;;;2.58;;
62848;SDS011;48941;49.516;8.286;2022-08-03T12:19:44;5.40;;;2.95;;
62848;SDS011;48941;49.516;8.286;2022-08-03T12:22:12;4.13;;;2.40;;
62848;SDS011;48941;49.516;8.286;2022-08-03T12:24:41;5.10;;;2.42;;
62848;SDS011;48941;49.516;8.286;2022-08-03T12:27:12;2.70;;;2.50;;
62848;SDS011;48941;49.516;8.286;2022-08-03T12:29:49;5.85;;;2.40;;
62848;SDS011;48941;49.516;8.286;2022-08-03T12:32:24;2.67;;;2.30;;
62848;SDS011;48941;49.516;8.286;2022-08-03T12:34:54;3.25;;;2.15;;
62848;SDS011;48941;49.516;8.286;2022-08-03T12:37:26;3.83;;;2.28;;
62848;SDS011;48941;49.516;8.286;2022-08-03T12:39:55;6.20;;;2.67;;
62848;SDS011;48941;49.516;8.286;2022-08-03T12:42:30;2.38;;;2.17;;
62848;SDS011;48941;49.516;8.286;2022-08-03T12:47:50;3.58;;;2.40;;
62848;SDS011;48941;49.516;8.286;2022-08-03T12:50:27;6.82;;;2.33;;
62848;SDS011;48941;49.516;8.286;2022-08-03T12:52:57;7.15;;;2.88;;
62848;SDS011;48941;49.516;8.286;2022-08-03T12:55:25;3.58;;;2.20;;
62848;SDS011;48941;49.516;8.286;2022-08-03T12:58:27;6.22;;;2.40;;
62848;SDS011;48941;49.516;8.286;2022-08-03T13:00:59;2.88;;;2.50;;
62848;SDS011;48941;49.516;8.286;2022-08-03T13:03:38;6.20;;;2.28;;
62848;SDS011;48941;49.516;8.286;2022-08-03T13:06:12;2.85;;;2.33;;
62848;SDS011;48941;49.516;8.286;2022-08-03T13:08:41;2.95;;;2.15;;
62848;SDS011;48941;49.516;8.286;2022-08-03T13:11:19;3.70;;;2.08;;
62848;SDS011;48941;49.516;8.286;2022-08-03T13:14:09;3.08;;;2.25;;
62848;SDS011;48941;49.516;8.286;2022-08-03T13:16:45;3.85;;;2.10;;
62848;SDS011;48941;49.516;8.286;2022-08-03T13:19:12;2.85;;;2.33;;
62848;SDS011;48941;49.516;8.286;2022-08-03T13:21:42;5.07;;;2.40;;
62848;SDS011;48941;49.516;8.286;2022-08-03T13:24:29;2.38;;;1.98;;
62848;SDS011;48941;49.516;8.286;2022-08-03T13:26:57;4.38;;;2.28;;
62848;SDS011;48941;49.516;8.286;2022-08-03T13:29:25;3.38;;;2.28;;
62848;SDS011;48941;49.516;8.286;2022-08-03T13:31:52;3.72;;;2.38;;
62848;SDS011;48941;49.516;8.286;2022-08-03T13:34:20;5.90;;;2.20;;
62848;SDS011;48941;49.516;8.286;2022-08-03T13:36:50;6.47;;;2.55;;
62848;SDS011;48941;49.516;8.286;2022-08-03T13:39:33;2.72;;;2.28;;
62848;SDS011;48941;49.516;8.286;2022-08-03T13:42:21;4.13;;;2.00;;
62848;SDS011;48941;49.516;8.286;2022-08-03T13:44:49;2.10;;;2.00;;
62848;SDS011;48941;49.516;8.286;2022-08-03T13:47:17;3.38;;;2.10;;
62848;SDS011;48941;49.516;8.286;2022-08-03T13:49:46;2.50;;;2.00;;
62848;SDS011;48941;49.516;8.286;2022-08-03T13:52:28;1.90;;;1.80;;
62848;SDS011;48941;49.516;8.286;2022-08-03T13:54:57;5.43;;;2.08;;
62848;SDS011;48941;49.516;8.286;2022-08-03T13:57:25;4.75;;;1.70;;
62848;SDS011;48941;49.516;8.286;2022-08-03T14:00:13;1.75;;;1.65;;
62848;SDS011;48941;49.516;8.286;2022-08-03T14:02:54;1.80;;;1.70;;
62848;SDS011;48941;49.516;8.286;2022-08-03T14:05:32;3.20;;;1.90;;
62848;SDS011;48941;49.516;8.286;2022-08-03T14:08:02;6.22;;;1.85;;
62848;SDS011;48941;49.516;8.286;2022-08-03T14:10:32;7.32;;;1.90;;
62848;SDS011;48941;49.516;8.286;2022-08-03T14:13:01;1.73;;;1.60;;
62848;SDS011;48941;49.516;8.286;2022-08-03T14:15:29;3.10;;;1.70;;
62848;SDS011;48941;49.516;8.286;2022-08-03T14:18:03;2.42;;;1.80;;
62848;SDS011;48941;49.516;8.286;2022-08-03T14:20:32;1.80;;;1.70;;
62848;SDS011;48941;49.516;8.286;2022-08-03T14:23:15;4.30;;;1.73;;
62848;SDS011;48941;49.516;8.286;2022-08-03T14:25:43;3.42;;;1.85;;
62848;SDS011;48941;49.516;8.286;2022-08-03T14:28:18;3.10;;;1.83;;
62848;SDS011;48941;49.516;8.286;2022-08-03T14:30:47;3.15;;;1.83;;
62848;SDS011;48941;49.516;8.286;2022-08-03T14:33:16;4.43;;;1.92;;
62848;SDS011;48941;49.516;8.286;2022-08-03T14:35:43;2.85;;;2.05;;
62848;SDS011;48941;49.516;8.286;2022-08-03T14:38:11;1.92;;;1.83;;
62848;SDS011;48941;49.516;8.286;2022-08-03T14:40:41;3.33;;;1.92;;
62848;SDS011;48941;49.516;8.286;2022-08-03T14:43:09;2.10;;;1.88;;
62848;SDS011;48941;49.516;8.286;2022-08-03T14:45:37;2.13;;;1.90;;
62848;SDS011;48941;49.516;8.286;2022-08-03T14:48:05;5.30;;;1.90;;
62848;SDS011;48941;49.516;8.286;2022-08-03T14:50:53;2.28;;;2.00;;
62848;SDS011;48941;49.516;8.286;2022-08-03T14:53:22;4.05;;;1.92;;
62848;SDS011;48941;49.516;8.286;2022-08-03T14:55:51;5.00;;;2.13;;
62848;SDS011;48941;49.516;8.286;2022-08-03T14:58:20;5.18;;;1.88;;
62848;SDS011;48941;49.516;8.286;2022-08-03T15:00:50;3.17;;;1.90;;
62848;SDS011;48941;49.516;8.286;2022-08-03T15:03:20;3.88;;;1.95;;
62848;SDS011;48941;49.516;8.286;2022-08-03T15:05:50;2.03;;;1.90;;
62848;SDS011;48941;49.516;8.286;2022-08-03T15:08:18;3.50;;;2.00;;
62848;SDS011;48941;49.516;8.286;2022-08-03T15:10:47;6.28;;;1.80;;
62848;SDS011;48941;49.516;8.286;2022-08-03T15:13:17;1.95;;;1.85;;
62848;SDS011;48941;49.516;8.286;2022-08-03T15:15:46;2.55;;;2.00;;
62848;SDS011;48941;49.516;8.286;2022-08-03T15:18:14;7.57;;;2.10;;
62848;SDS011;48941;49.516;8.286;2022-08-03T15:20:42;2.20;;;2.00;;
62848;SDS011;48941;49.516;8.286;2022-08-03T15:23:12;4.90;;;1.80;;
62848;SDS011;48941;49.516;8.286;2022-08-03T15:25:41;2.45;;;1.95;;
62848;SDS011;48941;49.516;8.286;2022-08-03T15:28:30;1.85;;;1.75;;
62848;SDS011;48941;49.516;8.286;2022-08-03T15:30:58;4.88;;;2.00;;
62848;SDS011;48941;49.516;8.286;2022-08-03T15:33:26;2.97;;;1.70;;
62848;SDS011;48941;49.516;8.286;2022-08-03T15:35:54;3.13;;;1.90;;
62848;SDS011;48941;49.516;8.286;2022-08-03T15:38:22;4.05;;;2.30;;
62848;SDS011;48941;49.516;8.286;2022-08-03T15:40:51;8.27;;;2.10;;